createdAt,value
2023-09-02T00:01:45.792Z,101615.03
2023-09-02T00:04:13.635Z,101609.91
2023-09-02T00:06:42.803Z,101618.97
2023-09-02T00:09:10.607Z,101618.13
2023-09-02T00:11:38.400Z,101615.38
2023-09-02T00:14:06.286Z,101612.66
2023-09-02T00:16:34.088Z,101616.41
2023-09-02T00:19:03.390Z,101615.69
2023-09-02T00:21:31.140Z,101614.13
2023-09-02T00:24:06.546Z,101616.03
2023-09-02T00:26:35.324Z,101613.59
2023-09-02T00:29:03.424Z,101615.50
2023-09-02T00:31:31.814Z,101606.56
2023-09-02T00:33:59.602Z,101608.47
2023-09-02T00:36:27.718Z,101613.25
2023-09-02T00:38:55.550Z,101609.97
2023-09-02T00:41:29.315Z,101617.69
2023-09-02T00:43:57.917Z,101627.28
2023-09-02T00:46:26.408Z,101616.13
2023-09-02T00:48:55.260Z,101609.09
2023-09-02T00:51:23.018Z,101610.28
2023-09-02T00:53:50.718Z,101606.00
2023-09-02T00:56:19.347Z,101606.19
2023-09-02T00:58:48.492Z,101609.06
2023-09-02T01:01:16.707Z,101608.38
2023-09-02T01:03:45.426Z,101608.53
2023-09-02T01:06:13.558Z,101605.97
2023-09-02T01:08:41.392Z,101614.69
2023-09-02T01:11:09.188Z,101622.22
2023-09-02T01:13:36.925Z,101627.88
2023-09-02T01:16:06.874Z,101618.97
2023-09-02T01:18:36.970Z,101626.47
2023-09-02T01:21:34.366Z,101626.66
2023-09-02T01:24:31.451Z,101627.13
2023-09-02T01:27:17.812Z,101630.91
2023-09-02T01:29:54.217Z,101637.56
2023-09-02T01:32:23.490Z,101640.50
2023-09-02T01:34:52.106Z,101643.38
2023-09-02T01:37:22.118Z,101637.34
2023-09-02T01:39:52.221Z,101636.66
2023-09-02T01:42:21.814Z,101646.63
2023-09-02T01:44:50.086Z,101646.63
2023-09-02T01:47:18.218Z,101648.66
2023-09-02T01:49:47.783Z,101650.56
2023-09-02T01:52:17.307Z,101640.75
2023-09-02T01:54:45.876Z,101646.09
2023-09-02T01:57:13.882Z,101648.13
2023-09-02T01:59:44.089Z,101655.50
2023-09-02T02:02:11.884Z,101656.50
2023-09-02T02:04:44.488Z,101643.81
2023-09-02T02:07:15.755Z,101652.03
2023-09-02T02:09:49.150Z,101651.16
2023-09-02T02:12:17.175Z,101663.56
2023-09-02T02:14:47.140Z,101670.91
2023-09-02T02:17:15.712Z,101673.50
2023-09-02T02:19:45.239Z,101672.63
2023-09-02T02:22:13.094Z,101681.72
2023-09-02T02:24:40.874Z,101688.06
2023-09-02T02:27:08.675Z,101675.22
2023-09-02T02:29:36.467Z,101665.97
2023-09-02T02:32:06.005Z,101671.31
2023-09-02T02:34:34.097Z,101669.22
2023-09-02T02:37:01.941Z,101670.97
2023-09-02T02:39:29.748Z,101665.31
2023-09-02T02:41:57.521Z,101673.53
2023-09-02T02:44:25.304Z,101672.50
2023-09-02T02:46:53.052Z,101672.38
2023-09-02T02:49:22.154Z,101675.13
2023-09-02T02:51:49.915Z,101670.47
2023-09-02T02:54:17.940Z,101679.56
2023-09-02T02:56:45.673Z,101664.81
2023-09-02T02:59:13.464Z,101668.44
2023-09-02T03:01:41.254Z,101666.56
2023-09-02T03:04:10.081Z,101668.44
2023-09-02T03:06:39.164Z,101673.94
2023-09-02T03:09:07.239Z,101668.44
2023-09-02T03:11:35.006Z,101675.13
2023-09-02T03:14:02.784Z,101675.13
2023-09-02T03:16:30.542Z,101678.72
2023-09-02T03:18:58.294Z,101677.31
2023-09-02T03:21:26.089Z,101690.16
2023-09-02T03:23:55.185Z,101683.81
2023-09-02T03:26:25.367Z,101683.81
2023-09-02T03:28:54.461Z,101682.41
2023-09-02T03:31:22.314Z,101675.38
2023-09-02T03:33:50.137Z,101691.16
2023-09-02T03:36:19.080Z,101674.59
2023-09-02T03:38:46.904Z,101677.31
2023-09-02T03:41:18.456Z,101680.59
2023-09-02T03:43:46.966Z,101693.44
2023-09-02T03:46:15.720Z,101695.63
2023-09-02T03:48:43.518Z,101703.16
2023-09-02T03:51:13.926Z,101686.19
2023-09-02T03:53:42.768Z,101707.09
2023-09-02T03:56:10.920Z,101710.47
2023-09-02T03:58:40.688Z,101704.44
2023-09-02T04:01:08.458Z,101701.03
2023-09-02T04:03:37.434Z,101706.16
2023-09-02T04:06:05.779Z,101703.25
2023-09-02T04:08:35.279Z,101707.03
2023-09-02T04:11:04.063Z,101704.84
2023-09-02T04:13:32.397Z,101705.53
2023-09-02T04:16:03.677Z,101688.22
2023-09-02T04:18:32.553Z,101702.47
2023-09-02T04:21:01.706Z,101701.47
2023-09-02T04:23:29.455Z,101698.72
2023-09-02T04:25:58.978Z,101703.50
2023-09-02T04:28:26.764Z,101699.72
2023-09-02T04:30:57.222Z,101706.06
2023-09-02T04:33:26.573Z,101701.94
2023-09-02T04:35:54.821Z,101713.91
2023-09-02T04:38:22.678Z,101727.41
2023-09-02T04:40:50.414Z,101730.63
2023-09-02T04:43:19.560Z,101727.91
2023-09-02T04:45:47.857Z,101736.78
2023-09-02T04:48:16.990Z,101736.13
2023-09-02T04:50:53.832Z,101735.03
2023-09-02T04:53:21.855Z,101726.97
2023-09-02T04:55:49.836Z,101732.59
2023-09-02T04:58:17.954Z,101731.75
2023-09-02T05:00:45.780Z,101731.91
2023-09-02T05:03:13.542Z,101729.63
2023-09-02T05:05:42.492Z,101729.25
2023-09-02T05:08:11.648Z,101732.13
2023-09-02T05:10:39.391Z,101732.59
2023-09-02T05:13:07.154Z,101742.84
2023-09-02T05:15:35.145Z,101742.00
2023-09-02T05:18:03.058Z,101748.94
2023-09-02T05:20:30.805Z,101747.22
2023-09-02T05:22:58.565Z,101745.31
2023-09-02T05:25:29.615Z,101755.81
2023-09-02T05:27:57.349Z,101761.63
2023-09-02T05:30:25.440Z,101760.75
2023-09-02T05:32:53.232Z,101766.84
2023-09-02T05:35:21.024Z,101769.75
2023-09-02T05:37:48.783Z,101763.25
2023-09-02T05:40:16.741Z,101770.47
2023-09-02T05:42:45.846Z,101776.63
2023-09-02T05:45:13.958Z,101778.38
2023-09-02T05:47:41.699Z,101771.66
2023-09-02T05:50:10.098Z,101770.59
2023-09-02T05:52:37.875Z,101776.97
2023-09-02T05:55:06.693Z,101781.00
2023-09-02T05:57:34.627Z,101780.78
2023-09-02T06:00:04.567Z,101782.97
2023-09-02T06:02:34.530Z,101786.44
2023-09-02T06:05:03.160Z,101787.09
2023-09-02T06:07:30.938Z,101790.00
2023-09-02T06:09:58.854Z,101790.41
2023-09-02T06:12:26.618Z,101789.38
2023-09-02T06:14:56.585Z,101787.66
2023-09-02T06:17:31.717Z,101786.81
2023-09-02T06:20:00.225Z,101799.50
2023-09-02T06:22:28.159Z,101810.13
2023-09-02T06:24:56.459Z,101813.75
2023-09-02T06:27:24.482Z,101819.22
2023-09-02T06:29:52.289Z,101825.00
2023-09-02T06:32:20.049Z,101839.47
2023-09-02T06:34:49.178Z,101838.59
2023-09-02T06:37:16.994Z,101854.50
2023-09-02T06:39:44.778Z,101850.88
2023-09-02T06:42:12.730Z,101859.66
2023-09-02T06:44:40.518Z,101859.66
2023-09-02T06:47:08.252Z,101868.44
2023-09-02T06:49:36.079Z,101856.00
2023-09-02T06:52:05.606Z,101860.63
2023-09-02T06:54:33.353Z,101865.63
2023-09-02T06:57:01.111Z,101876.31
2023-09-02T06:59:28.925Z,101881.47
2023-09-02T07:01:56.706Z,101885.78
2023-09-02T07:04:24.484Z,101885.16
2023-09-02T07:06:52.255Z,101887.59
2023-09-02T07:09:21.382Z,101892.97
2023-09-02T07:11:49.213Z,101891.31
2023-09-02T07:14:17.032Z,101892.66
2023-09-02T07:16:44.789Z,101887.03
2023-09-02T07:19:12.556Z,101893.34
2023-09-02T07:21:40.343Z,101897.53
2023-09-02T07:24:08.211Z,101906.59
2023-09-02T07:26:37.571Z,101917.72
2023-09-02T07:29:05.542Z,101913.47
2023-09-02T07:31:33.395Z,101921.56
2023-09-02T07:34:01.276Z,101923.81
2023-09-02T07:36:28.074Z,101926.13
2023-09-02T07:38:55.852Z,101923.94
2023-09-02T07:41:23.617Z,101924.81
2023-09-02T07:43:52.774Z,101928.25
2023-09-02T07:46:20.678Z,101937.00
2023-09-02T07:48:50.558Z,101941.31
2023-09-02T07:51:18.463Z,101948.94
2023-09-02T07:53:46.256Z,101949.34
2023-09-02T07:56:14.058Z,101951.94
2023-09-02T07:58:43.550Z,101953.66
2023-09-02T08:01:12.734Z,101959.53
2023-09-02T08:03:40.552Z,101960.16
2023-09-02T08:06:09.782Z,101963.91
2023-09-02T08:08:37.658Z,101968.78
2023-09-02T08:11:05.724Z,101968.31
2023-09-02T08:13:34.149Z,101961.50
2023-09-02T08:16:05.580Z,101960.88
2023-09-02T08:18:35.766Z,101957.34
2023-09-02T08:21:03.654Z,101956.84
2023-09-02T08:23:31.460Z,101958.59
2023-09-02T08:25:59.223Z,101952.25
2023-09-02T08:28:26.988Z,101948.97
2023-09-02T08:30:54.801Z,101944.03
2023-09-02T08:33:22.568Z,101942.22
2023-09-02T08:35:51.653Z,101938.44
2023-09-02T08:38:19.418Z,101947.91
2023-09-02T08:40:47.901Z,101946.03
2023-09-02T08:43:16.332Z,101945.56
2023-09-02T08:45:47.520Z,101953.94
2023-09-02T08:48:26.520Z,101960.56
2023-09-02T08:50:57.387Z,101969.72
2023-09-02T08:53:27.531Z,101971.13
2023-09-02T08:55:56.438Z,101975.09
2023-09-02T08:58:25.253Z,101986.09
2023-09-02T09:00:53.972Z,101985.63
2023-09-02T09:03:22.147Z,101993.38
2023-09-02T09:05:52.122Z,101988.25
2023-09-02T09:08:22.406Z,102000.16
2023-09-02T09:10:51.067Z,102006.19
2023-09-02T09:13:20.198Z,102001.41
2023-09-02T09:15:49.029Z,102020.00
2023-09-02T09:18:17.786Z,102025.88
2023-09-02T09:20:46.100Z,102024.13
2023-09-02T09:23:13.992Z,102026.88
2023-09-02T09:25:45.979Z,102027.59
2023-09-02T09:28:14.949Z,102041.81
2023-09-02T09:30:43.416Z,102040.25
2023-09-02T09:33:11.285Z,102047.28
2023-09-02T09:35:39.271Z,102045.03
2023-09-02T09:38:07.192Z,102049.38
2023-09-02T09:40:36.466Z,102045.81
2023-09-02T09:43:16.685Z,102041.41
2023-09-02T09:45:51.292Z,102046.56
2023-09-02T09:48:19.247Z,102054.50
2023-09-02T09:50:47.068Z,102052.09
2023-09-02T09:53:14.808Z,102066.16
2023-09-02T09:55:42.724Z,102069.31
2023-09-02T09:58:11.881Z,102066.59
2023-09-02T10:00:40.037Z,102066.81
2023-09-02T10:03:07.945Z,102067.19
2023-09-02T10:05:36.087Z,102079.28
2023-09-02T10:08:05.900Z,102081.22
2023-09-02T10:10:37.289Z,102080.22
2023-09-02T10:13:06.324Z,102084.06
2023-09-02T10:15:35.644Z,102076.50
2023-09-02T10:18:05.654Z,102073.44
2023-09-02T10:20:36.325Z,102082.09
2023-09-02T10:23:07.578Z,102078.34
2023-09-02T10:25:45.275Z,102088.88
2023-09-02T10:28:17.752Z,102087.31
2023-09-02T10:30:49.824Z,102088.03
2023-09-02T10:33:25.874Z,102089.09
2023-09-02T10:36:00.697Z,102089.31
2023-09-02T10:38:31.504Z,102087.75
2023-09-02T10:41:09.421Z,102090.16
2023-09-02T10:43:37.790Z,102092.25
2023-09-02T10:46:07.373Z,102094.66
2023-09-02T10:48:36.078Z,102097.56
2023-09-02T10:51:04.939Z,102095.16
2023-09-02T10:54:02.945Z,102099.47
2023-09-02T10:56:33.117Z,102095.69
2023-09-02T10:59:02.220Z,102101.19
2023-09-02T11:01:43.904Z,102102.56
2023-09-02T11:04:11.702Z,102086.03
2023-09-02T11:06:39.606Z,102093.44
2023-09-02T11:09:13.423Z,102101.19
2023-09-02T11:12:12.184Z,102104.28
2023-09-02T11:14:40.028Z,102097.56
2023-09-02T11:17:32.006Z,102100.50
2023-09-02T11:20:01.723Z,102107.38
2023-09-02T11:22:48.513Z,102096.00
2023-09-02T11:25:27.318Z,102103.22
2023-09-02T11:27:56.626Z,102096.50
2023-09-02T11:30:25.037Z,102100.09
2023-09-02T11:32:55.846Z,102100.28
2023-09-02T11:35:29.721Z,102101.16
2023-09-02T11:37:57.510Z,102112.88
2023-09-02T11:40:29.307Z,102114.59
2023-09-02T11:43:00.955Z,102123.56
2023-09-02T11:45:31.578Z,102121.84
2023-09-02T11:48:01.109Z,102131.66
2023-09-02T11:50:29.259Z,102139.94
2023-09-02T11:52:58.588Z,102137.16
2023-09-02T11:55:27.276Z,102144.59
2023-09-02T11:57:55.104Z,102156.97
2023-09-02T12:00:24.438Z,102154.59
2023-09-02T12:02:54.562Z,102159.94
2023-09-02T12:05:26.155Z,102165.63
2023-09-02T12:07:55.706Z,102167.69
2023-09-02T12:10:27.238Z,102166.47
2023-09-02T12:12:55.283Z,102170.94
2023-09-02T12:15:23.056Z,102174.38
2023-09-02T12:17:51.154Z,102178.66
2023-09-02T12:20:19.464Z,102172.94
2023-09-02T12:22:48.714Z,102172.22
2023-09-02T12:25:18.955Z,102174.81
2023-09-02T12:27:46.888Z,102173.41
2023-09-02T12:30:15.346Z,102174.03
2023-09-02T12:32:46.706Z,102176.81
2023-09-02T12:35:15.337Z,102182.28
2023-09-02T12:37:43.299Z,102181.19
2023-09-02T12:40:14.250Z,102173.19
2023-09-02T12:42:42.782Z,102175.53
2023-09-02T12:45:11.281Z,102179.72
2023-09-02T12:47:42.672Z,102177.38
2023-09-02T12:50:11.590Z,102167.00
2023-09-02T12:52:39.533Z,102164.03
2023-09-02T12:55:08.566Z,102164.00
2023-09-02T12:57:38.286Z,102154.94
2023-09-02T13:00:07.919Z,102151.75
2023-09-02T13:02:40.085Z,102144.94
2023-09-02T13:05:08.340Z,102155.75
2023-09-02T13:07:36.136Z,102148.06
2023-09-02T13:10:04.648Z,102148.56
2023-09-02T13:12:34.392Z,102148.28
2023-09-02T13:15:04.025Z,102149.13
2023-09-02T13:17:31.856Z,102150.63
2023-09-02T13:19:59.807Z,102143.38
2023-09-02T13:22:27.732Z,102148.84
2023-09-02T13:24:55.808Z,102143.03
2023-09-02T13:27:26.773Z,102143.44
2023-09-02T13:29:54.721Z,102147.59
2023-09-02T13:32:26.349Z,102151.13
2023-09-02T13:34:56.642Z,102162.09
2023-09-02T13:37:28.670Z,102160.69
2023-09-02T13:39:58.729Z,102161.34
2023-09-02T13:42:27.589Z,102157.16
2023-09-02T13:45:09.189Z,102167.28
2023-09-02T13:47:38.480Z,102166.22
2023-09-02T13:50:11.682Z,102161.69
2023-09-02T13:52:39.879Z,102154.97
2023-09-02T13:55:08.390Z,102162.00
2023-09-02T13:57:36.254Z,102164.09
2023-09-02T14:00:11.995Z,102165.41
2023-09-02T14:02:42.261Z,102158.03
2023-09-02T14:05:15.484Z,102160.53
2023-09-02T14:07:45.440Z,102161.34
2023-09-02T14:10:14.274Z,102156.81
2023-09-02T14:12:42.059Z,102165.31
2023-09-02T14:15:10.249Z,102163.84
2023-09-02T14:17:38.045Z,102161.84
2023-09-02T14:20:08.343Z,102169.59
2023-09-02T14:22:36.113Z,102159.06
2023-09-02T14:25:04.011Z,102162.31
2023-09-02T14:27:31.849Z,102163.28
2023-09-02T14:29:59.582Z,102158.78
2023-09-02T14:32:27.381Z,102160.81
2023-09-02T14:34:55.146Z,102164.91
2023-09-02T14:37:24.278Z,102162.94
2023-09-02T14:39:52.018Z,102175.72
2023-09-02T14:42:19.740Z,102171.97
2023-09-02T14:44:47.574Z,102173.72
2023-09-02T14:47:15.385Z,102163.84
2023-09-02T14:49:43.197Z,102163.31
2023-09-02T14:52:10.947Z,102161.41
2023-09-02T14:54:47.292Z,102163.38
2023-09-02T14:57:16.577Z,102164.50
2023-09-02T14:59:47.221Z,102162.72
2023-09-02T15:02:21.764Z,102174.94
2023-09-02T15:04:50.451Z,102173.50
2023-09-02T15:07:18.302Z,102174.94
2023-09-02T15:09:48.450Z,102174.47
2023-09-02T15:12:17.310Z,102168.72
2023-09-02T15:14:50.600Z,102179.53
2023-09-02T15:17:19.580Z,102179.25
2023-09-02T15:19:50.545Z,102170.16
2023-09-02T15:22:20.132Z,102172.06
2023-09-02T15:24:49.617Z,102175.50
2023-09-02T15:27:24.959Z,102174.25
2023-09-02T15:29:53.053Z,102171.88
2023-09-02T15:32:20.912Z,102178.75
2023-09-02T15:34:50.222Z,102182.69
2023-09-02T15:37:22.672Z,102186.78
2023-09-02T15:39:55.318Z,102184.31
2023-09-02T15:42:23.580Z,102184.19
2023-09-02T15:44:51.355Z,102191.25
2023-09-02T15:47:19.091Z,102185.25
2023-09-02T15:49:46.870Z,102191.53
2023-09-02T15:52:14.687Z,102194.09
2023-09-02T15:54:42.459Z,102195.25
2023-09-02T15:57:12.699Z,102196.97
2023-09-02T15:59:40.513Z,102205.78
2023-09-02T16:02:08.566Z,102200.91
2023-09-02T16:04:36.384Z,102204.47
2023-09-02T16:07:04.214Z,102204.00
2023-09-02T16:09:32.023Z,102208.94
2023-09-02T16:11:59.901Z,102204.75
2023-09-02T16:14:29.150Z,102207.81
2023-09-02T16:17:01.638Z,102200.75
2023-09-02T16:19:29.440Z,102207.22
2023-09-02T16:21:57.193Z,102202.91
2023-09-02T16:24:23.966Z,102203.31
2023-09-02T16:26:51.714Z,102211.81
2023-09-02T16:29:19.468Z,102205.81
2023-09-02T16:31:48.630Z,102211.16
2023-09-02T16:34:16.546Z,102209.91
2023-09-02T16:36:44.313Z,102208.22
2023-09-02T16:39:12.540Z,102215.47
2023-09-02T16:41:44.518Z,102226.34
2023-09-02T16:44:13.662Z,102208.97
2023-09-02T16:46:41.743Z,102218.81
2023-09-02T16:49:16.221Z,102221.28
2023-09-02T16:51:44.169Z,102222.88
2023-09-02T16:54:12.657Z,102225.50
2023-09-02T16:56:40.456Z,102221.94
2023-09-02T16:59:08.925Z,102227.47
2023-09-02T17:01:41.127Z,102234.06
2023-09-02T17:04:09.046Z,102238.56
2023-09-02T17:06:39.274Z,102220.34
2023-09-02T17:09:07.104Z,102233.19
2023-09-02T17:11:35.165Z,102243.94
2023-09-02T17:14:04.387Z,102245.13
2023-09-02T17:16:32.213Z,102244.72
2023-09-02T17:19:01.449Z,102247.78
2023-09-02T17:21:29.267Z,102251.63
2023-09-02T17:23:58.893Z,102248.47
2023-09-02T17:26:26.809Z,102244.19
2023-09-02T17:28:54.663Z,102234.06
2023-09-02T17:31:23.763Z,102256.09
2023-09-02T17:33:51.621Z,102259.94
2023-09-02T17:36:19.482Z,102266.88
2023-09-02T17:38:47.380Z,102266.38
2023-09-02T17:41:16.657Z,102270.84
2023-09-02T17:43:44.783Z,102265.06
2023-09-02T17:46:12.696Z,102277.53
2023-09-02T17:48:40.810Z,102279.81
2023-09-02T17:51:08.652Z,102266.13
2023-09-02T17:53:36.441Z,102268.06
2023-09-02T17:56:04.339Z,102267.97
2023-09-02T17:58:33.626Z,102284.78
2023-09-02T18:01:01.485Z,102285.31
2023-09-02T18:03:29.819Z,102285.50
2023-09-02T18:05:57.751Z,102288.81
2023-09-02T18:08:34.301Z,102290.38
2023-09-02T18:11:09.690Z,102307.16
2023-09-02T18:13:38.870Z,102301.31
2023-09-02T18:16:06.892Z,102309.63
2023-09-02T18:18:35.092Z,102322.56
2023-09-02T18:21:02.884Z,102319.13
2023-09-02T18:23:30.748Z,102330.25
2023-09-02T18:25:58.555Z,102322.97
2023-09-02T18:28:26.458Z,102318.53
2023-09-02T18:30:55.657Z,102327.66
2023-09-02T18:33:23.509Z,102330.75
2023-09-02T18:35:51.481Z,102339.72
2023-09-02T18:38:19.563Z,102336.31
2023-09-02T18:40:47.567Z,102341.13
2023-09-02T18:43:15.408Z,102344.03
2023-09-02T18:45:43.204Z,102351.81
2023-09-02T18:48:12.367Z,102345.94
2023-09-02T18:50:43.052Z,102354.25
2023-09-02T18:53:11.208Z,102348.19
2023-09-02T18:55:38.987Z,102357.16
2023-09-02T18:58:08.264Z,102358.03
2023-09-02T19:00:37.438Z,102361.66
2023-09-02T19:03:05.970Z,102354.84
2023-09-02T19:05:35.497Z,102358.63
2023-09-02T19:08:03.272Z,102354.59
2023-09-02T19:10:31.139Z,102356.47
2023-09-02T19:12:58.958Z,102357.31
2023-09-02T19:15:26.879Z,102352.31
2023-09-02T19:17:54.744Z,102349.19
2023-09-02T19:20:22.589Z,102357.63
2023-09-02T19:22:51.876Z,102366.22
2023-09-02T19:25:20.516Z,102357.91
2023-09-02T19:27:49.320Z,102365.63
2023-09-02T19:30:17.116Z,102376.09
2023-09-02T19:32:44.964Z,102374.34
2023-09-02T19:35:13.953Z,102378.84
2023-09-02T19:37:45.511Z,102375.50
2023-09-02T19:40:15.814Z,102383.06
2023-09-02T19:42:47.987Z,102386.59
2023-09-02T19:45:16.123Z,102381.91
2023-09-02T19:47:44.010Z,102391.53
2023-09-02T19:50:12.443Z,102395.28
2023-09-02T19:52:40.281Z,102404.75
2023-09-02T19:55:08.983Z,102395.94
2023-09-02T19:57:38.068Z,102411.72
2023-09-02T20:00:08.031Z,102411.50
2023-09-02T20:02:35.789Z,102416.47
2023-09-02T20:05:03.595Z,102415.19
2023-09-02T20:07:31.342Z,102415.81
2023-09-02T20:09:59.233Z,102419.91
2023-09-02T20:12:30.447Z,102426.56
2023-09-02T20:14:59.784Z,102425.16
2023-09-02T20:17:27.514Z,102434.44
2023-09-02T20:19:55.279Z,102441.09
2023-09-02T20:22:23.015Z,102437.81
2023-09-02T20:24:50.755Z,102441.72
2023-09-02T20:27:19.816Z,102451.88
2023-09-02T20:29:47.653Z,102446.50
2023-09-02T20:32:16.806Z,102445.66
2023-09-02T20:34:44.603Z,102452.59
2023-09-02T20:37:13.731Z,102450.78
2023-09-02T20:39:42.401Z,102454.84
2023-09-02T20:42:10.294Z,102463.25
2023-09-02T20:44:38.352Z,102462.38
2023-09-02T20:47:06.382Z,102461.38
2023-09-02T20:49:35.551Z,102465.13
2023-09-02T20:52:07.332Z,102463.56
2023-09-02T20:54:35.132Z,102462.13
2023-09-02T20:57:02.896Z,102474.13
2023-09-02T20:59:30.657Z,102475.28
2023-09-02T21:01:58.425Z,102485.72
2023-09-02T21:04:26.238Z,102490.81
2023-09-02T21:06:55.425Z,102480.44
2023-09-02T21:09:23.190Z,102493.59
2023-09-02T21:11:51.069Z,102492.19
2023-09-02T21:14:18.931Z,102496.09
2023-09-02T21:16:46.775Z,102489.16
2023-09-02T21:19:14.592Z,102496.38
2023-09-02T21:21:43.672Z,102503.88
2023-09-02T21:24:14.167Z,102498.13
2023-09-02T21:26:42.433Z,102503.78
2023-09-02T21:29:10.258Z,102504.97
2023-09-02T21:31:38.067Z,102495.25
2023-09-02T21:34:05.940Z,102492.81
2023-09-02T21:36:33.833Z,102496.84
2023-09-02T21:39:01.568Z,102497.16
2023-09-02T21:41:30.743Z,102481.44
2023-09-02T21:44:01.090Z,102491.25
2023-09-02T21:46:28.884Z,102496.03
2023-09-02T21:48:56.982Z,102502.84
2023-09-02T21:51:24.748Z,102503.97
2023-09-02T21:53:57.111Z,102501.50
2023-09-02T21:56:24.999Z,102500.19
2023-09-02T21:58:54.212Z,102508.56
2023-09-02T22:01:22.113Z,102517.22
2023-09-02T22:03:50.041Z,102514.91
2023-09-02T22:06:17.938Z,102518.81
2023-09-02T22:08:47.653Z,102522.16
2023-09-02T22:11:17.223Z,102540.78
2023-09-02T22:13:45.579Z,102527.03
2023-09-02T22:16:15.844Z,102535.44
2023-09-02T22:18:56.191Z,102542.34
2023-09-02T22:21:28.102Z,102549.44
2023-09-02T22:23:55.933Z,102554.00
2023-09-02T22:26:23.689Z,102564.22
2023-09-02T22:28:51.551Z,102562.50
2023-09-02T22:31:20.732Z,102564.91
2023-09-02T22:33:48.564Z,102556.25
2023-09-02T22:36:17.044Z,102551.47
2023-09-02T22:41:16.289Z,102560.09
2023-09-02T22:43:44.100Z,102564.84
2023-09-02T22:46:13.428Z,102551.41
2023-09-02T22:48:42.954Z,102543.97
2023-09-02T22:51:10.851Z,102545.56
2023-09-02T22:53:40.004Z,102541.97
2023-09-02T22:56:12.295Z,102538.34
2023-09-02T22:58:40.114Z,102544.72
2023-09-02T23:01:10.631Z,102538.25
2023-09-02T23:03:38.489Z,102539.25
2023-09-02T23:06:11.010Z,102535.59
2023-09-02T23:08:39.175Z,102544.97
2023-09-02T23:11:07.014Z,102544.13
2023-09-02T23:13:34.827Z,102549.59
2023-09-02T23:16:04.576Z,102543.25
2023-09-02T23:18:32.897Z,102533.16
2023-09-02T23:21:11.312Z,102544.28
2023-09-02T23:23:39.597Z,102539.78
2023-09-02T23:26:07.549Z,102548.00
2023-09-02T23:28:35.910Z,102548.00
2023-09-02T23:31:03.941Z,102558.97
2023-09-02T23:33:33.626Z,102556.34
2023-09-02T23:36:03.662Z,102565.41
2023-09-02T23:38:33.500Z,102563.06
2023-09-02T23:41:01.325Z,102556.38
2023-09-02T23:43:29.280Z,102568.34
2023-09-02T23:45:57.180Z,102558.53
2023-09-02T23:48:25.219Z,102561.53
2023-09-02T23:50:53.273Z,102563.69
2023-09-02T23:53:21.069Z,102571.91
2023-09-02T23:55:50.277Z,102566.66
2023-09-02T23:58:18.486Z,102570.69
